createdAt,value
2019-04-25T00:01:56.412Z,42.90
2019-04-25T00:04:58.312Z,36.93
2019-04-25T00:08:01.520Z,52.17
2019-04-25T00:11:05.709Z,46.30
2019-04-25T00:14:08.472Z,36.50
2019-04-25T00:17:11.366Z,42.23
2019-04-25T00:20:14.102Z,40.17
2019-04-25T00:23:17.761Z,47.23
2019-04-25T00:26:37.893Z,39.73
2019-04-25T00:29:41.792Z,51.00
2019-04-25T00:32:44.208Z,48.50
2019-04-25T00:35:46.444Z,41.27
2019-04-25T00:38:49.269Z,49.00
2019-04-25T00:41:52.127Z,45.60
2019-04-25T00:44:54.123Z,48.80
2019-04-25T00:47:56.094Z,42.33
2019-04-25T00:50:58.017Z,43.30
2019-04-25T00:53:59.944Z,44.80
2019-04-25T00:57:02.237Z,55.40
2019-04-25T01:00:27.623Z,52.97
2019-04-25T01:03:31.751Z,52.93
2019-04-25T01:06:33.991Z,48.47
2019-04-25T01:09:35.918Z,52.03
2019-04-25T01:12:39.610Z,51.13
2019-04-25T01:15:42.520Z,45.13
2019-04-25T01:18:45.418Z,47.93
2019-04-25T01:21:47.557Z,55.70
2019-04-25T01:24:49.659Z,47.50
2019-04-25T01:27:52.225Z,48.77
2019-04-25T01:30:56.173Z,45.73
2019-04-25T01:33:58.650Z,50.20
2019-04-25T01:37:18.992Z,53.90
2019-04-25T01:40:39.537Z,47.47
2019-04-25T01:43:59.678Z,47.77
2019-04-25T01:47:01.735Z,49.23
2019-04-25T01:50:05.055Z,55.07
2019-04-25T01:53:08.172Z,47.17
2019-04-25T01:56:10.126Z,50.50
2019-04-25T01:59:13.763Z,47.70
2019-04-25T02:02:17.737Z,48.27
2019-04-25T02:05:19.822Z,48.07
2019-04-25T02:08:21.693Z,51.53
2019-04-25T02:11:26.743Z,48.13
2019-04-25T02:14:28.823Z,48.60
2019-04-25T02:17:30.842Z,37.37
2019-04-25T02:20:33.923Z,52.03
2019-04-25T02:23:36.028Z,43.97
2019-04-25T02:26:37.944Z,46.33
2019-04-25T02:29:39.932Z,51.30
2019-04-25T02:32:44.043Z,50.70
2019-04-25T02:35:46.841Z,52.23
2019-04-25T02:38:49.133Z,51.70
2019-04-25T02:41:51.135Z,57.30
2019-04-25T02:44:57.906Z,44.87
2019-04-25T02:48:01.463Z,45.07
2019-04-25T02:51:17.246Z,46.60
2019-04-25T02:54:19.149Z,42.37
2019-04-25T02:57:21.141Z,48.90
2019-04-25T03:00:27.666Z,40.90
2019-04-25T03:03:29.703Z,40.33
2019-04-25T03:06:31.621Z,43.00
2019-04-25T03:09:35.214Z,38.87
2019-04-25T03:12:37.426Z,46.70
2019-04-25T03:15:39.367Z,43.83
2019-04-25T03:18:46.004Z,47.03
2019-04-25T03:21:54.955Z,45.23
2019-04-25T03:24:56.297Z,47.23
2019-04-25T03:27:59.429Z,41.43
2019-04-25T03:31:03.900Z,41.03
2019-04-25T03:34:09.508Z,50.30
2019-04-25T03:37:09.497Z,44.80
2019-04-25T03:40:12.275Z,43.13
2019-04-25T03:43:15.486Z,43.07
2019-04-25T03:46:18.689Z,38.27
2019-04-25T03:49:20.745Z,41.77
2019-04-25T03:52:23.884Z,48.03
2019-04-25T03:55:26.179Z,36.07
2019-04-25T03:58:28.149Z,52.07
2019-04-25T04:01:30.781Z,41.63
2019-04-25T04:04:33.537Z,36.90
2019-04-25T04:07:35.797Z,46.33
2019-04-25T04:10:37.784Z,37.83
2019-04-25T04:13:39.751Z,34.57
2019-04-25T04:16:44.342Z,38.60
2019-04-25T04:19:54.660Z,28.53
2019-04-25T04:23:05.578Z,33.33
2019-04-25T04:26:08.470Z,28.70
2019-04-25T04:29:10.422Z,34.03
2019-04-25T04:32:12.914Z,30.37
2019-04-25T04:35:17.473Z,26.30
2019-04-25T04:38:19.735Z,22.27
2019-04-25T04:41:21.733Z,25.60
2019-04-25T04:44:24.100Z,21.13
2019-04-25T04:47:26.447Z,21.67
2019-04-25T04:50:28.347Z,21.10
2019-04-25T04:53:30.308Z,22.53
2019-04-25T04:56:34.065Z,22.93
2019-04-25T04:59:36.099Z,22.07
2019-04-25T05:02:43.404Z,20.73
2019-04-25T05:05:53.574Z,20.40
2019-04-25T05:08:58.897Z,23.87
2019-04-25T05:12:01.178Z,23.23
2019-04-25T05:15:06.259Z,21.40
2019-04-25T05:18:08.218Z,21.20
2019-04-25T05:21:10.315Z,16.33
2019-04-25T05:24:13.462Z,20.17
2019-04-25T05:27:24.950Z,21.53
2019-04-25T05:30:23.618Z,20.90
2019-04-25T05:33:26.220Z,24.13
2019-04-25T05:36:29.958Z,23.80
2019-04-25T05:39:33.451Z,22.33
2019-04-25T05:42:49.921Z,23.43
2019-04-25T05:45:51.922Z,17.67
2019-04-25T05:48:53.896Z,18.10
2019-04-25T05:51:55.892Z,19.43
2019-04-25T05:54:57.840Z,21.77
2019-04-25T05:57:59.803Z,18.17
2019-04-25T06:01:03.300Z,22.90
2019-04-25T06:04:05.579Z,18.83
2019-04-25T06:07:07.614Z,23.73
2019-04-25T06:10:11.908Z,21.13
2019-04-25T06:13:31.179Z,16.37
2019-04-25T06:16:33.703Z,22.13
2019-04-25T06:19:37.476Z,23.43
2019-04-25T06:22:58.019Z,24.63
2019-04-25T06:26:00.016Z,21.63
2019-04-25T06:29:03.301Z,22.37
2019-04-25T06:32:08.524Z,16.27
2019-04-25T06:35:09.845Z,24.07
2019-04-25T06:38:13.224Z,22.10
2019-04-25T06:41:15.588Z,15.77
2019-04-25T06:44:32.977Z,21.03
2019-04-25T06:47:44.266Z,21.60
2019-04-25T06:50:46.417Z,20.37
2019-04-25T06:53:48.350Z,19.17
2019-04-25T06:56:50.393Z,27.93
2019-04-25T06:59:53.302Z,21.82
2019-04-25T07:02:55.348Z,15.53
2019-04-25T07:05:58.802Z,15.72
2019-04-25T07:09:00.729Z,23.45
2019-04-25T07:12:03.614Z,14.63
2019-04-25T07:15:08.576Z,21.23
2019-04-25T07:18:10.464Z,21.45
2019-04-25T07:21:14.081Z,14.50
2019-04-25T07:24:17.615Z,16.12
2019-04-25T07:27:38.274Z,12.15
2019-04-25T07:30:54.600Z,37.58
2019-04-25T07:33:58.344Z,14.93
2019-04-25T07:37:00.278Z,16.62
2019-04-25T07:40:04.955Z,15.07
2019-04-25T07:43:07.378Z,7.62
2019-04-25T07:46:09.342Z,11.20
2019-04-25T07:49:11.266Z,11.17
2019-04-25T07:52:13.634Z,9.13
2019-04-25T07:55:15.922Z,7.70
2019-04-25T07:58:17.908Z,14.47
2019-04-25T08:01:20.068Z,11.07
2019-04-25T08:04:23.563Z,8.83
2019-04-25T08:07:25.912Z,5.10
2019-04-25T08:10:31.880Z,7.40
2019-04-25T08:13:39.900Z,6.53
2019-04-25T08:16:44.552Z,6.77
2019-04-25T08:19:46.947Z,8.53
2019-04-25T08:22:56.508Z,10.53
2019-04-25T08:25:54.371Z,6.70
2019-04-25T08:28:57.813Z,7.60
2019-04-25T08:32:00.234Z,8.87
2019-04-25T08:35:03.859Z,7.20
2019-04-25T08:38:07.105Z,4.93
2019-04-25T08:41:09.025Z,8.97
2019-04-25T08:44:11.016Z,11.30
2019-04-25T08:47:14.442Z,7.53
2019-04-25T08:50:28.974Z,8.07
2019-04-25T08:53:24.346Z,14.83
2019-04-25T08:56:28.123Z,9.20
2019-04-25T08:59:48.285Z,9.63
2019-04-25T09:02:49.863Z,16.20
2019-04-25T09:05:53.416Z,10.83
2019-04-25T09:08:55.615Z,9.37
2019-04-25T09:11:57.504Z,9.23
2019-04-25T09:14:59.441Z,11.83
2019-04-25T09:18:01.395Z,14.50
2019-04-25T09:21:03.950Z,12.03
2019-04-25T09:24:06.016Z,13.83
2019-04-25T09:27:08.010Z,10.73
2019-04-25T09:30:10.030Z,10.03
2019-04-25T09:33:13.285Z,14.93
2019-04-25T09:36:15.440Z,10.63
2019-04-25T09:39:37.546Z,17.60
2019-04-25T09:42:40.350Z,7.67
2019-04-25T09:45:47.383Z,5.00
2019-04-25T09:48:59.787Z,8.20
2019-04-25T09:52:03.574Z,11.77
2019-04-25T09:55:07.510Z,11.17
2019-04-25T09:58:15.227Z,12.80
2019-04-25T10:01:17.561Z,9.23
2019-04-25T10:04:22.886Z,16.10
2019-04-25T10:07:24.367Z,9.20
2019-04-25T10:10:26.852Z,9.57
2019-04-25T10:13:29.029Z,9.27
2019-04-25T10:16:30.933Z,9.30
2019-04-25T10:19:34.461Z,6.53
2019-04-25T10:22:36.951Z,14.93
2019-04-25T10:25:39.589Z,6.90
2019-04-25T10:28:43.708Z,11.63
2019-04-25T10:31:45.778Z,13.53
2019-04-25T10:34:47.688Z,13.27
2019-04-25T10:37:49.748Z,14.83
2019-04-25T10:40:53.613Z,15.37
2019-04-25T10:43:56.172Z,9.00
2019-04-25T10:46:58.348Z,8.83
2019-04-25T10:50:00.336Z,10.73
2019-04-25T10:53:03.918Z,8.87
2019-04-25T10:56:06.163Z,12.40
2019-04-25T10:59:08.187Z,13.70
2019-04-25T11:02:11.156Z,13.27
2019-04-25T11:05:15.034Z,16.73
2019-04-25T11:08:17.027Z,16.27
2019-04-25T11:11:19.020Z,10.13
2019-04-25T11:14:21.555Z,8.43
2019-04-25T11:17:24.281Z,12.80
2019-04-25T11:20:29.400Z,19.30
2019-04-25T11:23:31.534Z,16.70
2019-04-25T11:26:34.609Z,15.93
2019-04-25T11:29:36.803Z,21.73
2019-04-25T11:32:38.815Z,16.07
2019-04-25T11:35:40.883Z,20.07
2019-04-25T11:38:45.319Z,14.10
2019-04-25T11:41:48.642Z,15.67
2019-04-25T11:44:52.713Z,10.40
2019-04-25T11:47:55.515Z,9.40
2019-04-25T11:50:57.451Z,12.27
2019-04-25T11:53:59.365Z,15.80
2019-04-25T11:57:01.303Z,14.97
2019-04-25T12:00:07.095Z,12.43
2019-04-25T12:03:10.688Z,18.83
2019-04-25T12:06:14.160Z,13.13
2019-04-25T12:09:17.477Z,17.63
2019-04-25T12:12:19.548Z,10.80
2019-04-25T12:15:21.475Z,18.67
2019-04-25T12:18:23.494Z,13.33
2019-04-25T12:21:25.451Z,14.43
2019-04-25T12:24:27.521Z,11.83
2019-04-25T12:27:29.398Z,17.73
2019-04-25T12:30:38.150Z,18.23
2019-04-25T12:33:35.232Z,8.57
2019-04-25T12:36:37.235Z,15.77
2019-04-25T12:39:39.150Z,19.37
2019-04-25T12:42:41.110Z,10.47
2019-04-25T12:45:51.054Z,10.50
2019-04-25T12:48:53.680Z,15.07
2019-04-25T12:51:56.709Z,13.87
2019-04-25T12:54:58.781Z,17.77
2019-04-25T12:58:00.866Z,12.00
2019-04-25T13:01:04.455Z,13.57
2019-04-25T13:04:06.549Z,15.60
2019-04-25T13:07:08.634Z,15.30
2019-04-25T13:10:11.328Z,12.33
2019-04-25T13:13:15.012Z,11.13
2019-04-25T13:16:17.279Z,11.80
2019-04-25T13:19:23.913Z,15.93
2019-04-25T13:22:23.227Z,16.53
2019-04-25T13:25:25.121Z,10.47
2019-04-25T13:28:35.144Z,15.17
2019-04-25T13:31:51.075Z,12.37
2019-04-25T13:34:58.681Z,13.57
2019-04-25T13:38:01.351Z,12.47
2019-04-25T13:41:04.086Z,16.93
2019-04-25T13:44:07.085Z,12.47
2019-04-25T13:47:09.446Z,11.20
2019-04-25T13:50:12.945Z,6.07
2019-04-25T13:53:16.264Z,11.13
2019-04-25T13:56:18.347Z,19.40
2019-04-25T13:59:21.698Z,7.83
2019-04-25T14:02:25.279Z,15.13
2019-04-25T14:05:28.275Z,13.17
2019-04-25T14:08:31.534Z,11.97
2019-04-25T14:11:34.517Z,9.73
2019-04-25T14:14:37.617Z,11.80
2019-04-25T14:17:50.343Z,7.23
2019-04-25T14:20:54.126Z,11.50
2019-04-25T14:23:56.071Z,7.00
2019-04-25T14:26:58.024Z,8.90
2019-04-25T14:29:59.932Z,11.20
2019-04-25T14:33:03.591Z,11.33
2019-04-25T14:36:05.805Z,9.37
2019-04-25T14:39:07.758Z,7.20
2019-04-25T14:42:11.793Z,15.20
2019-04-25T14:45:13.983Z,6.47
2019-04-25T14:48:17.137Z,9.03
2019-04-25T14:51:20.687Z,7.67
2019-04-25T14:54:28.469Z,13.03
2019-04-25T14:57:31.909Z,8.50
2019-04-25T15:00:35.743Z,12.07
2019-04-25T15:03:37.787Z,12.03
2019-04-25T15:06:39.797Z,12.07
2019-04-25T15:09:41.748Z,14.93
2019-04-25T15:12:43.720Z,10.90
2019-04-25T15:15:45.646Z,13.13
2019-04-25T15:18:47.564Z,11.23
2019-04-25T15:21:49.451Z,11.23
2019-04-25T15:24:51.369Z,10.03
2019-04-25T15:27:53.378Z,13.53
2019-04-25T15:30:55.248Z,14.77
2019-04-25T15:33:57.127Z,14.47
2019-04-25T15:37:04.036Z,12.87
2019-04-25T15:40:16.907Z,9.03
2019-04-25T15:43:27.569Z,17.50
2019-04-25T15:46:34.938Z,10.37
2019-04-25T15:49:37.002Z,14.97
2019-04-25T15:52:39.157Z,12.67
2019-04-25T15:55:41.089Z,9.90
2019-04-25T15:58:42.994Z,12.07
2019-04-25T16:01:44.973Z,13.20
2019-04-25T16:04:46.934Z,10.67
2019-04-25T16:07:48.944Z,15.83
2019-04-25T16:10:50.972Z,10.37
2019-04-25T16:13:53.034Z,8.87
2019-04-25T16:16:54.966Z,10.40
2019-04-25T16:19:56.908Z,14.67
2019-04-25T16:22:58.774Z,12.50
2019-04-25T16:26:00.782Z,13.50
2019-04-25T16:29:02.716Z,8.40
2019-04-25T16:32:06.525Z,18.80
2019-04-25T16:35:08.530Z,12.77
2019-04-25T16:38:10.814Z,19.60
2019-04-25T16:41:14.450Z,10.00
2019-04-25T16:44:21.015Z,10.77
2019-04-25T16:47:24.832Z,12.90
2019-04-25T16:50:29.041Z,20.77
2019-04-25T16:53:32.648Z,34.70
2019-04-25T16:56:34.632Z,11.40
2019-04-25T16:59:37.651Z,9.20
2019-04-25T17:02:41.351Z,14.07
2019-04-25T17:05:43.497Z,9.50
2019-04-25T17:08:45.474Z,9.83
2019-04-25T17:11:47.383Z,8.27
2019-04-25T17:14:54.153Z,16.03
2019-04-25T17:17:57.994Z,17.63
2019-04-25T17:21:04.952Z,12.57
2019-04-25T17:24:07.876Z,13.93
2019-04-25T17:27:10.712Z,17.80
2019-04-25T17:30:13.718Z,14.33
2019-04-25T17:33:26.232Z,11.60
2019-04-25T17:36:33.131Z,110.53
2019-04-25T17:39:35.695Z,72.27
2019-04-25T17:42:40.984Z,49.47
2019-04-25T17:45:43.844Z,21.53
2019-04-25T17:48:46.136Z,77.73
2019-04-25T17:51:48.032Z,261.63
2019-04-25T17:54:50.121Z,90.10
2019-04-25T17:57:52.145Z,166.43
2019-04-25T18:00:54.186Z,158.23
2019-04-25T18:03:56.111Z,160.70
2019-04-25T18:06:58.105Z,95.93
2019-04-25T18:10:00.066Z,108.63
2019-04-25T18:13:02.154Z,104.93
2019-04-25T18:16:21.221Z,68.23
2019-04-25T18:19:28.077Z,79.33
2019-04-25T18:22:43.604Z,70.40
2019-04-25T18:25:50.206Z,44.50
2019-04-25T18:29:09.106Z,25.80
2019-04-25T18:32:15.039Z,26.30
2019-04-25T18:35:27.746Z,14.30
2019-04-25T18:38:31.889Z,19.17
2019-04-25T18:41:37.661Z,17.80
2019-04-25T18:44:40.018Z,27.47
2019-04-25T18:47:42.442Z,16.70
2019-04-25T18:50:44.703Z,15.87
2019-04-25T18:53:57.067Z,14.10
2019-04-25T18:57:01.859Z,16.67
2019-04-25T19:00:07.566Z,12.47
2019-04-25T19:03:22.460Z,22.60
2019-04-25T19:06:21.574Z,16.77
2019-04-25T19:09:23.677Z,18.50
2019-04-25T19:12:29.963Z,20.30
2019-04-25T19:15:32.927Z,16.57
2019-04-25T19:18:36.208Z,18.37
2019-04-25T19:21:39.188Z,12.97
2019-04-25T19:24:44.967Z,25.07
2019-04-25T19:27:46.574Z,19.00
2019-04-25T19:30:49.655Z,15.60
2019-04-25T19:33:51.762Z,24.80
2019-04-25T19:36:53.716Z,24.40
2019-04-25T19:39:58.838Z,23.27
2019-04-25T19:43:02.961Z,24.50
2019-04-25T19:46:06.159Z,22.30
2019-04-25T19:49:08.084Z,21.73
2019-04-25T19:52:10.010Z,25.77
2019-04-25T19:55:11.990Z,53.30
2019-04-25T19:58:16.493Z,42.20
2019-04-25T20:01:21.209Z,44.67
2019-04-25T20:04:37.200Z,27.13
2019-04-25T20:07:43.773Z,26.60
2019-04-25T20:10:55.739Z,23.20
2019-04-25T20:13:58.290Z,19.80
2019-04-25T20:17:00.271Z,19.00
2019-04-25T20:20:05.224Z,20.60
2019-04-25T20:23:07.908Z,19.63
2019-04-25T20:26:09.994Z,14.77
2019-04-25T20:29:12.443Z,19.67
2019-04-25T20:32:15.913Z,18.13
2019-04-25T20:35:17.874Z,19.47
2019-04-25T20:38:21.619Z,22.67
2019-04-25T20:41:23.563Z,21.83
2019-04-25T20:44:26.876Z,25.67
2019-04-25T20:47:28.891Z,25.97
2019-04-25T20:50:30.788Z,21.53
2019-04-25T20:53:33.265Z,14.10
2019-04-25T20:56:35.158Z,21.00
2019-04-25T20:59:37.231Z,23.33
2019-04-25T21:02:39.128Z,19.80
2019-04-25T21:05:41.582Z,25.07
2019-04-25T21:08:43.505Z,26.43
2019-04-25T21:11:45.410Z,26.43
2019-04-25T21:14:52.812Z,19.90
2019-04-25T21:18:14.849Z,25.93
2019-04-25T21:21:16.743Z,20.53
2019-04-25T21:24:18.763Z,25.43
2019-04-25T21:27:20.638Z,21.53
2019-04-25T21:30:22.669Z,21.40
2019-04-25T21:33:24.586Z,19.83
2019-04-25T21:36:26.893Z,18.57
2019-04-25T21:39:49.265Z,18.23
2019-04-25T21:42:56.225Z,17.03
2019-04-25T21:46:03.026Z,21.47
2019-04-25T21:49:17.045Z,22.03
2019-04-25T21:52:24.333Z,28.70
2019-04-25T21:55:27.715Z,23.53
2019-04-25T21:58:42.530Z,19.70
2019-04-25T22:01:47.785Z,24.40
2019-04-25T22:04:55.694Z,19.77
2019-04-25T22:08:02.531Z,19.13
2019-04-25T22:11:10.311Z,19.23
2019-04-25T22:14:13.182Z,22.53
2019-04-25T22:17:15.508Z,19.67
2019-04-25T22:20:17.811Z,15.50
2019-04-25T22:23:19.723Z,21.03
2019-04-25T22:26:21.973Z,26.23
2019-04-25T22:29:24.620Z,24.50
2019-04-25T22:32:34.625Z,28.70
2019-04-25T22:35:38.419Z,21.10
2019-04-25T22:38:40.981Z,21.13
2019-04-25T22:41:46.615Z,24.13
2019-04-25T22:44:48.286Z,23.70
2019-04-25T22:47:50.237Z,29.20
2019-04-25T22:50:52.464Z,20.40
2019-04-25T22:53:54.435Z,35.07
2019-04-25T22:56:56.421Z,24.57
2019-04-25T22:59:58.666Z,29.27
2019-04-25T23:03:05.535Z,25.10
2019-04-25T23:06:07.651Z,29.30
2019-04-25T23:09:10.170Z,22.60
2019-04-25T23:12:13.975Z,28.00
2019-04-25T23:15:17.508Z,19.13
2019-04-25T23:18:20.028Z,20.37
2019-04-25T23:21:21.888Z,17.63
2019-04-25T23:24:25.618Z,21.53
2019-04-25T23:27:32.532Z,30.93
2019-04-25T23:30:36.235Z,27.30
2019-04-25T23:33:38.210Z,24.73
2019-04-25T23:36:40.428Z,24.30
2019-04-25T23:39:42.349Z,22.20
2019-04-25T23:42:44.336Z,27.33
2019-04-25T23:45:46.297Z,24.23
2019-04-25T23:48:48.538Z,29.67
2019-04-25T23:51:50.482Z,28.97
2019-04-25T23:54:52.402Z,23.90
2019-04-25T23:57:54.649Z,24.93
